Terminal Aerodrome Forecast
Issued by NWS Sterling, VA

Current Version | Previous Version | Text Only | Print | Product List | Glossary On
Versions: 1 2 3 4 5 6 7 8 9 10 11 12 13 14 15 16 17
868
FTUS41 KLWX 091338 CCA
TAFCHO
TAF COR
KCHO 091338Z 0914/1012 00000KT 5SM BR BKN005 OVC050
     FM091700 28006KT P6SM OVC050=

USA.gov is the U.S. government's official web portal to all federal, state and local government web resources and services.